Time;durP1;ratioP1;P1;durP2;ratioP2;P2;SDS_P1;SDS_P2;PMS_P1;PMS_P2;Temp;Humidity;BMP_temperature;BMP_pressure;BME280_temperature;BME280_humidity;BME280_pressure;Samples;Min_cycle;Max_cycle;Signal;HPM_P1;HPM_P2
2023/01/17 00:02:46;;;;;;;4.07;1.80;;;;;;;4.54;80.69;97037.81;10306757;28;20148;-64
2023/01/17 00:13:08;;;;;;;2.92;1.30;;;;;;;4.76;79.31;97075.06;10319282;28;20088;-66
2023/01/17 00:18:10;;;;;;;2.78;1.10;;;;;;;4.72;78.63;97073.75;10320987;28;20139;-66
2023/01/17 01:37:08;;;;;;;2.38;1.10;;;;;;;4.41;70.70;97191.09;10301166;28;20049;-66
2023/01/17 01:42:14;;;;;;;1.65;1.25;;;;;;;4.35;70.22;97198.78;10308708;28;20054;-65
2023/01/17 01:47:32;;;;;;;1.85;0.95;;;;;;;4.34;70.10;97207.66;10306973;28;20050;-66
2023/01/17 01:52:38;;;;;;;1.85;1.45;;;;;;;4.31;70.22;97206.19;10309256;28;20694;-65
2023/01/17 01:57:46;;;;;;;2.75;1.27;;;;;;;4.28;68.89;97224.09;10316768;28;20049;-66
2023/01/17 02:02:48;;;;;;;3.75;1.45;;;;;;;4.28;69.16;97227.56;10306383;28;20050;-66
2023/01/17 02:08:00;;;;;;;4.30;1.60;;;;;;;4.27;68.89;97243.53;10300644;28;20695;-66
2023/01/17 02:13:02;;;;;;;2.65;1.48;;;;;;;4.21;68.45;97245.78;10318742;28;20058;-65
2023/01/17 02:18:24;;;;;;;3.28;1.20;;;;;;;4.22;68.31;97246.63;10303912;28;20050;-64
2023/01/17 02:23:43;;;;;;;2.33;1.20;;;;;;;4.14;68.01;97246.56;10319296;28;20048;-65
2023/01/17 02:29:05;;;;;;;2.90;1.13;;;;;;;4.25;69.37;97247.13;10312975;28;20286;-66
2023/01/17 02:34:19;;;;;;;2.00;1.38;;;;;;;4.20;67.62;97259.94;10306757;28;20637;-68
2023/01/17 02:39:26;;;;;;;2.70;0.98;;;;;;;4.29;68.23;97263.44;10310668;28;20148;-66
2023/01/17 02:44:28;;;;;;;2.03;1.00;;;;;;;4.17;67.48;97264.69;10322651;28;20049;-64
2023/01/17 02:49:31;;;;;;;2.60;1.15;;;;;;;4.21;67.48;97269.47;10326076;28;20042;-66
2023/01/17 02:55:03;;;;;;;1.25;1.05;;;;;;;4.23;67.36;97270.16;10320571;28;20546;-65
2023/01/17 03:00:19;;;;;;;2.75;0.95;;;;;;;4.22;66.50;97267.69;10323244;28;20038;-66
2023/01/17 03:05:30;;;;;;;1.45;0.98;;;;;;;4.25;67.36;97278.72;10327630;28;20041;-66
2023/01/17 03:10:34;;;;;;;2.47;1.10;;;;;;;4.27;67.31;97285.66;10331099;28;20068;-66
2023/01/17 03:15:38;;;;;;;2.50;1.23;;;;;;;4.29;66.70;97281.88;10344755;28;20045;-66
2023/01/17 03:20:40;;;;;;;2.88;1.25;;;;;;;4.36;67.34;97305.78;10320183;28;20050;-65
2023/01/17 03:25:41;;;;;;;2.90;1.30;;;;;;;4.21;65.46;97297.63;10325508;28;20196;-64
2023/01/17 03:30:43;;;;;;;1.83;1.15;;;;;;;4.35;67.47;97312.03;10324293;28;20499;-64
2023/01/17 03:35:45;;;;;;;3.22;1.05;;;;;;;4.37;66.18;97310.91;10324908;28;20683;-64
2023/01/17 03:40:46;;;;;;;1.85;1.00;;;;;;;4.41;65.81;97319.28;10324565;28;20058;-63
2023/01/17 03:45:50;;;;;;;3.13;1.10;;;;;;;4.22;66.13;97305.38;10325539;28;20191;-66
2023/01/17 03:50:52;;;;;;;2.75;1.48;;;;;;;4.15;65.61;97306.97;10322374;28;20045;-65
2023/01/17 03:55:53;;;;;;;3.55;1.25;;;;;;;4.03;65.48;97319.56;10332188;28;20052;-65
2023/01/17 04:00:55;;;;;;;1.55;1.30;;;;;;;4.01;67.29;97312.81;10324930;28;20104;-64
2023/01/17 04:05:56;;;;;;;2.55;0.80;;;;;;;4.03;66.42;97318.75;10313459;28;20172;-65
2023/01/17 04:10:58;;;;;;;3.33;1.25;;;;;;;4.00;67.29;97332.22;10329208;28;20763;-66
2023/01/17 04:16:01;;;;;;;2.30;1.30;;;;;;;4.01;66.38;97339.13;10327233;28;20054;-65
2023/01/17 04:21:04;;;;;;;4.10;1.92;;;;;;;3.96;66.35;97330.84;10325836;28;20048;-66
2023/01/17 04:26:05;;;;;;;3.90;1.80;;;;;;;4.02;66.94;97348.66;10322231;28;20065;-66
2023/01/17 04:31:14;;;;;;;4.72;1.90;;;;;;;3.96;67.04;97346.66;10330321;28;20050;-66
2023/01/17 04:36:16;;;;;;;2.95;2.20;;;;;;;3.89;67.66;97346.44;10315114;28;20073;-66
2023/01/17 04:41:18;;;;;;;2.58;1.48;;;;;;;3.74;67.98;97356.69;10311404;28;20128;-66
2023/01/17 04:46:19;;;;;;;3.10;1.70;;;;;;;3.57;68.95;97362.75;10318805;28;20056;-66
2023/01/17 04:51:21;;;;;;;4.07;1.92;;;;;;;3.59;69.52;97381.84;10320072;28;20050;-66
2023/01/17 04:56:23;;;;;;;3.17;2.15;;;;;;;3.53;69.65;97378.84;10320452;28;20363;-65
2023/01/17 05:01:24;;;;;;;3.22;1.80;;;;;;;3.52;69.82;97385.06;10314709;28;21399;-66
2023/01/17 05:06:27;;;;;;;3.00;1.85;;;;;;;3.44;70.43;97379.75;10304986;28;20489;-66
2023/01/17 05:11:28;;;;;;;2.80;2.55;;;;;;;3.30;71.10;97394.22;10315558;28;20058;-66
2023/01/17 05:16:29;;;;;;;2.55;2.13;;;;;;;3.24;71.83;97400.06;10299625;28;20059;-66
2023/01/17 05:21:32;;;;;;;3.63;2.22;;;;;;;3.15;72.31;97396.53;10314269;28;20124;-66
2023/01/17 05:26:34;;;;;;;4.53;2.78;;;;;;;3.20;72.03;97398.72;10310270;28;20064;-66
2023/01/17 05:31:35;;;;;;;3.60;2.20;;;;;;;3.16;72.23;97398.16;10322932;28;20128;-66
2023/01/17 05:36:37;;;;;;;3.03;2.40;;;;;;;3.14;72.14;97410.63;10328456;28;20307;-66
2023/01/17 05:41:38;;;;;;;4.57;2.60;;;;;;;3.21;72.31;97405.59;10316248;28;20212;-66
2023/01/17 05:46:41;;;;;;;3.60;2.58;;;;;;;3.25;72.34;97411.41;10321057;28;20129;-66
2023/01/17 05:51:42;;;;;;;3.65;2.30;;;;;;;3.20;71.91;97398.72;10318442;28;20057;-66
2023/01/17 05:56:44;;;;;;;2.80;2.50;;;;;;;3.25;72.36;97420.13;10318871;28;20278;-65
2023/01/17 06:01:45;;;;;;;3.60;2.08;;;;;;;3.33;71.97;97420.22;10316436;28;20434;-65
2023/01/17 06:06:47;;;;;;;4.82;2.35;;;;;;;3.32;72.29;97418.56;10298464;28;20042;-67
2023/01/17 06:11:49;;;;;;;2.65;2.30;;;;;;;3.31;72.42;97426.59;10305044;28;20053;-69
2023/01/17 06:16:53;;;;;;;4.95;2.22;;;;;;;3.34;72.99;97434.19;10299258;28;20551;-67
2023/01/17 06:21:57;;;;;;;5.35;2.70;;;;;;;3.35;72.73;97427.97;10301931;28;20056;-67
2023/01/17 06:26:59;;;;;;;4.70;2.47;;;;;;;3.41;72.89;97430.00;10278958;28;20151;-68
2023/01/17 06:32:01;;;;;;;4.30;3.42;;;;;;;3.43;72.91;97437.75;10307092;28;20046;-66
2023/01/17 06:37:03;;;;;;;6.97;3.03;;;;;;;3.46;73.00;97440.91;10315555;28;20439;-67
2023/01/17 06:42:04;;;;;;;4.57;2.83;;;;;;;3.42;72.57;97443.97;10300357;28;20056;-66
2023/01/17 06:47:06;;;;;;;5.18;3.58;;;;;;;3.36;73.13;97432.22;10311175;28;20081;-68
2023/01/17 06:52:07;;;;;;;3.92;2.80;;;;;;;3.51;73.58;97448.34;10311327;28;20459;-72
2023/01/17 06:57:10;;;;;;;4.97;3.08;;;;;;;3.54;73.16;97448.91;10315588;28;20049;-67
2023/01/17 07:02:11;;;;;;;5.57;3.28;;;;;;;3.56;73.31;97453.16;10303795;28;20589;-67
2023/01/17 07:07:13;;;;;;;5.40;3.83;;;;;;;3.54;73.98;97448.06;10311736;28;20062;-66
2023/01/17 07:12:14;;;;;;;6.10;4.10;;;;;;;3.54;73.89;97443.63;10315156;28;20073;-66
2023/01/17 07:17:16;;;;;;;4.00;2.90;;;;;;;3.50;74.33;97437.00;10318192;28;20050;-66
2023/01/17 07:22:17;;;;;;;5.80;3.55;;;;;;;3.51;73.94;97440.44;10314636;28;20050;-66
2023/01/17 07:27:19;;;;;;;4.88;3.33;;;;;;;3.47;74.14;97432.03;10316081;28;20069;-66
2023/01/17 07:32:25;;;;;;;7.88;3.65;;;;;;;3.43;74.31;97435.13;10318058;28;20168;-61
2023/01/17 07:37:27;;;;;;;7.55;3.58;;;;;;;3.41;74.57;97424.75;10301970;28;20149;-68
2023/01/17 07:42:28;;;;;;;4.85;3.90;;;;;;;3.47;74.75;97428.59;10320850;28;20130;-66
2023/01/17 07:47:30;;;;;;;6.05;3.78;;;;;;;3.46;75.13;97421.69;10313017;28;20171;-65
2023/01/17 07:52:31;;;;;;;7.72;4.43;;;;;;;3.51;74.96;97417.63;10301996;28;20054;-66
2023/01/17 07:57:33;;;;;;;8.07;4.65;;;;;;;3.61;75.14;97411.47;10315621;28;21086;-64
2023/01/17 08:02:34;;;;;;;14.40;9.32;;;;;;;3.70;74.94;97421.09;10322989;28;20062;-67
2023/01/17 08:07:36;;;;;;;9.35;4.20;;;;;;;3.80;74.15;97427.13;10324502;28;20057;-69
2023/01/17 08:12:37;;;;;;;5.25;3.33;;;;;;;3.89;73.34;97428.84;10324922;28;20133;-63
2023/01/17 08:17:47;;;;;;;5.90;3.45;;;;;;;3.96;73.15;97425.59;10315153;28;20049;-68
2023/01/17 08:22:52;;;;;;;3.72;3.08;;;;;;;4.05;72.97;97403.63;10315120;28;20309;-66
2023/01/17 08:27:56;;;;;;;4.95;3.28;;;;;;;3.87;72.25;97380.81;10317424;28;20622;-71
2023/01/17 08:32:57;;;;;;;7.00;3.28;;;;;;;3.89;72.57;97393.81;10313667;28;20054;-70
2023/01/17 08:38:03;;;;;;;6.35;3.63;;;;;;;4.04;72.16;97391.47;10301787;28;20050;-64
2023/01/17 08:43:07;;;;;;;4.18;2.88;;;;;;;4.12;71.75;97378.38;10313490;28;20061;-69
2023/01/17 08:48:08;;;;;;;2.92;2.40;;;;;;;4.16;70.56;97374.44;10316393;28;20061;-69
2023/01/17 08:53:10;;;;;;;5.72;2.83;;;;;;;4.21;70.74;97371.34;10316435;28;20576;-70
2023/01/17 08:58:12;;;;;;;7.95;3.03;;;;;;;4.30;70.18;97361.72;10311801;28;20105;-69
2023/01/17 09:03:15;;;;;;;3.85;2.63;;;;;;;4.39;69.97;97366.84;10311348;28;20049;-66
2023/01/17 09:08:18;;;;;;;5.85;3.65;;;;;;;4.54;69.37;97376.84;10315892;28;20132;-65
2023/01/17 09:13:20;;;;;;;7.35;3.92;;;;;;;4.53;68.48;97381.25;10311734;28;20057;-67
2023/01/17 09:18:21;;;;;;;4.35;2.40;;;;;;;4.41;67.35;97366.69;10325856;28;20493;-66
2023/01/17 09:23:23;;;;;;;6.28;3.15;;;;;;;4.63;67.85;97388.25;10306856;28;20057;-64
2023/01/17 09:28:25;;;;;;;5.43;3.00;;;;;;;4.59;67.02;97375.41;10307379;28;20626;-66
2023/01/17 09:33:27;;;;;;;5.53;2.63;;;;;;;4.55;67.83;97386.41;10308752;28;20133;-70
2023/01/17 09:38:29;;;;;;;4.97;2.75;;;;;;;4.76;67.14;97396.56;10315638;28;20046;-66
2023/01/17 09:43:36;;;;;;;6.15;4.07;;;;;;;5.00;66.17;97403.75;10312648;28;20136;-66
2023/01/17 09:48:42;;;;;;;4.00;3.00;;;;;;;5.12;64.35;97404.31;10315455;28;20072;-65
2023/01/17 09:53:44;;;;;;;3.85;1.88;;;;;;;5.21;60.47;97398.06;10312208;28;20057;-67
2023/01/17 09:59:23;;;;;;;3.33;2.53;;;;;;;5.53;60.12;97409.72;10310675;28;20064;-66
2023/01/17 10:04:50;;;;;;;4.20;2.20;;;;;;;5.70;59.46;97409.75;10307252;28;20054;-68
2023/01/17 10:09:59;;;;;;;2.75;1.60;;;;;;;5.82;56.77;97397.88;10306204;28;20053;-68
2023/01/17 10:15:38;;;;;;;3.50;2.30;;;;;;;6.14;56.84;97401.56;10301269;28;20108;-66
2023/01/17 10:20:52;;;;;;;2.03;1.65;;;;;;;6.64;55.28;97408.44;10302802;28;20050;-65
2023/01/17 10:26:00;;;;;;;3.30;2.15;;;;;;;7.00;53.30;97396.63;10303073;28;20046;-66
2023/01/17 10:31:09;;;;;;;4.15;2.53;;;;;;;7.36;53.39;97391.69;10304441;28;20137;-65
2023/01/17 10:36:17;;;;;;;3.20;2.30;;;;;;;7.25;52.49;97390.25;10306264;28;20054;-64
2023/01/17 10:41:42;;;;;;;2.17;1.27;;;;;;;7.64;49.04;97385.91;10303738;28;20435;-69
2023/01/17 10:46:51;;;;;;;4.80;3.40;;;;;;;10.70;41.74;97373.25;10308666;28;20060;-66
2023/01/17 10:52:11;;;;;;;2.63;1.90;;;;;;;11.27;40.80;97385.47;10298788;28;20133;-62
2023/01/17 10:57:17;;;;;;;3.72;2.40;;;;;;;16.18;33.93;97387.16;10306000;28;20049;-64
2023/01/17 11:02:23;;;;;;;2.95;1.85;;;;;;;17.79;30.42;97389.59;10306530;28;20077;-65
2023/01/17 11:07:27;;;;;;;3.17;1.70;;;;;;;20.60;26.92;97392.94;10306446;28;20144;-66
2023/01/17 11:12:36;;;;;;;2.67;1.88;;;;;;;14.71;31.51;97383.50;10307713;28;20050;-67
2023/01/17 11:17:47;;;;;;;3.88;2.30;;;;;;;11.13;37.87;97389.09;10300168;28;20782;-66
2023/01/17 11:23:10;;;;;;;2.58;2.20;;;;;;;9.19;43.44;97382.84;10259982;28;1360354;-63
2023/01/17 11:28:25;;;;;;;4.28;2.42;;;;;;;8.58;45.67;97382.22;10310603;28;20151;-63
2023/01/17 11:33:54;;;;;;;;;;;;;;;10.55;40.07;97386.66;10312476;28;20058;-63
2023/01/17 11:39:02;;;;;;;2.08;1.58;;;;;;;9.23;42.33;97372.66;10326597;28;19955;-62
2023/01/17 11:44:31;;;;;;;2.60;1.80;;;;;;;11.73;35.96;97359.19;10312154;28;20064;-61
2023/01/17 11:49:33;;;;;;;2.75;1.58;;;;;;;15.17;31.56;97354.59;10306331;28;20188;-64
2023/01/17 11:54:41;;;;;;;2.20;1.73;;;;;;;13.57;33.38;97346.03;10299642;28;20045;-65
2023/01/17 11:59:43;;;;;;;1.98;1.48;;;;;;;16.98;29.92;97330.44;10310382;28;20062;-64
2023/01/17 12:05:07;;;;;;;1.77;1.30;;;;;;;18.97;26.70;97312.66;10308103;28;20125;-65
2023/01/17 12:10:22;;;;;;;2.83;1.30;;;;;;;20.37;25.57;97319.28;10313639;28;20050;-66
2023/01/17 12:15:36;;;;;;;2.47;1.48;;;;;;;21.88;23.23;97317.81;10315762;28;20753;-66
2023/01/17 12:20:54;;;;;;;2.53;1.50;;;;;;;22.58;21.70;97297.56;10310838;28;20682;-64
2023/01/17 12:26:24;;;;;;;2.58;1.92;;;;;;;22.22;22.03;97295.66;10302765;28;20065;-61
2023/01/17 12:31:33;;;;;;;2.42;1.20;;;;;;;22.30;21.39;97288.06;10311343;28;20044;-66
2023/01/17 12:36:57;;;;;;;1.83;1.05;;;;;;;22.84;19.68;97279.31;10309998;28;20054;-63
2023/01/17 12:42:17;;;;;;;2.25;0.93;;;;;;;23.58;18.96;97271.41;10312336;28;20431;-66
2023/01/17 12:47:20;;;;;;;1.85;1.00;;;;;;;22.18;19.47;97275.59;10310800;28;20486;-67
2023/01/17 12:52:34;;;;;;;1.50;0.73;;;;;;;19.53;21.58;97269.34;10312578;28;20058;-64
2023/01/17 12:57:46;;;;;;;1.60;1.05;;;;;;;16.86;25.67;97269.47;10313337;28;20068;-64
2023/01/17 13:03:14;;;;;;;1.80;0.97;;;;;;;18.94;23.17;97254.66;10306774;28;20767;-65
2023/01/17 13:08:54;;;;;;;2.28;1.10;;;;;;;16.12;26.82;97251.19;10310558;28;20390;-66
2023/01/17 13:13:58;;;;;;;3.90;1.70;;;;;;;13.94;29.94;97242.75;10300581;28;20056;-66
2023/01/17 13:19:12;;;;;;;5.45;1.85;;;;;;;12.47;33.75;97234.69;10364879;22;20056;-72
2023/01/17 13:24:27;;;;;;;2.60;1.33;;;;;;;11.84;34.32;97242.16;10307854;28;20046;-70
2023/01/17 13:29:44;;;;;;;2.75;1.13;;;;;;;12.49;33.00;97236.13;10333046;28;20049;-70
2023/01/17 13:35:42;;;;;;;2.90;1.52;;;;;;;11.84;34.33;97241.31;10330081;28;20046;-69
2023/01/17 13:40:57;;;;;;;4.10;2.08;;;;;;;11.11;34.83;97253.50;10269264;28;20529;-70
2023/01/17 13:46:01;;;;;;;3.95;2.40;;;;;;;10.63;36.30;97250.03;10288562;28;20442;-69
2023/01/17 13:51:04;;;;;;;2.72;1.60;;;;;;;10.44;36.61;97241.75;10282753;28;20692;-68
2023/01/17 13:56:18;;;;;;;3.35;1.83;;;;;;;10.83;36.15;97245.63;10279442;28;20066;-69
2023/01/17 14:01:22;;;;;;;2.35;1.50;;;;;;;10.22;37.41;97249.81;10278661;28;20046;-67
2023/01/17 14:06:40;;;;;;;2.03;1.30;;;;;;;9.53;38.99;97264.59;10278420;28;20051;-69
2023/01/17 14:12:09;;;;;;;3.60;1.98;;;;;;;8.77;40.94;97267.63;10280344;28;20505;-68
2023/01/17 14:17:16;;;;;;;3.60;1.73;;;;;;;8.46;42.34;97268.66;10283003;28;20048;-69
2023/01/17 14:22:18;;;;;;;2.10;1.70;;;;;;;8.43;42.38;97265.53;10294782;28;20484;-70
2023/01/17 14:27:23;;;;;;;3.47;1.67;;;;;;;8.47;42.82;97253.59;10278022;28;20232;-69
2023/01/17 14:32:31;;;;;;;3.17;2.03;;;;;;;8.42;42.07;97246.16;10282655;28;20157;-69
2023/01/17 14:37:45;;;;;;;4.28;2.05;;;;;;;8.36;42.33;97254.00;10277517;28;20065;-68
2023/01/17 14:43:01;;;;;;;4.40;1.92;;;;;;;8.14;42.20;97240.66;10298203;28;20045;-68
2023/01/17 14:48:05;;;;;;;2.55;1.67;;;;;;;8.08;42.70;97244.03;10288174;28;22403;-68
2023/01/17 14:53:16;;;;;;;2.00;1.53;;;;;;;7.87;43.50;97240.25;10276904;28;21388;-71
2023/01/17 14:58:38;;;;;;;3.10;1.65;;;;;;;7.66;44.26;97242.78;10278770;28;20053;-68
2023/01/17 15:03:44;;;;;;;3.63;1.85;;;;;;;7.46;44.35;97237.13;10285853;28;20499;-72
2023/01/17 15:08:47;;;;;;;2.20;1.42;;;;;;;7.34;44.08;97242.00;10284730;28;20112;-74
2023/01/17 15:13:53;;;;;;;2.58;1.75;;;;;;;7.14;44.29;97237.19;10282377;28;20065;-72
2023/01/17 15:18:56;;;;;;;4.10;1.58;;;;;;;6.91;45.20;97234.53;10280536;28;20181;-70
2023/01/17 15:23:58;;;;;;;2.90;2.20;;;;;;;6.70;46.42;97251.00;10279233;28;20062;-70
2023/01/17 15:29:06;;;;;;;2.20;1.80;;;;;;;6.50;46.82;97247.94;10288180;28;20141;-70
2023/01/17 15:34:19;;;;;;;2.42;2.15;;;;;;;6.37;47.62;97251.94;10284340;28;20679;-70
2023/01/17 15:39:26;;;;;;;2.88;1.80;;;;;;;6.19;48.35;97246.06;10276446;28;20054;-71
2023/01/17 15:44:27;;;;;;;2.50;1.95;;;;;;;6.06;48.66;97253.69;10281490;22;20882;-54
2023/01/17 15:49:50;;;;;;;4.75;2.08;;;;;;;5.98;49.24;97252.69;10273527;28;20117;-54
2023/01/17 15:54:57;;;;;;;4.70;2.50;;;;;;;5.93;49.70;97257.63;10258768;28;20993;-54
2023/01/17 16:00:06;;;;;;;3.58;2.30;;;;;;;5.86;49.71;97256.66;10256884;28;20160;-56
2023/01/17 16:05:33;;;;;;;2.97;2.53;;;;;;;5.81;49.49;97265.06;10271192;28;20062;-54
2023/01/17 16:10:36;;;;;;;3.72;2.20;;;;;;;5.71;49.90;97263.59;10275965;28;20122;-54
2023/01/17 16:15:40;;;;;;;2.90;2.10;;;;;;;5.64;49.94;97269.53;10252683;28;20096;-61
2023/01/17 16:20:45;;;;;;;3.47;2.77;;;;;;;5.63;50.09;97267.88;10259254;28;20077;-59
2023/01/17 16:25:47;;;;;;;3.90;2.72;;;;;;;5.52;50.82;97270.84;10267037;28;20058;-55
2023/01/17 16:30:52;;;;;;;5.35;3.03;;;;;;;5.59;50.92;97271.84;10257697;28;20053;-54
2023/01/17 16:35:54;;;;;;;5.18;2.92;;;;;;;5.61;51.04;97271.69;10237978;28;20130;-55
2023/01/17 16:40:57;;;;;;;4.53;3.20;;;;;;;5.52;51.49;97265.56;10250578;28;20725;-55
2023/01/17 16:45:59;;;;;;;4.78;3.17;;;;;;;5.57;51.56;97278.25;10252717;28;21073;-58
2023/01/17 16:51:05;;;;;;;4.35;2.97;;;;;;;5.44;51.96;97276.13;10258940;28;20062;-54
2023/01/17 16:56:12;;;;;;;5.82;3.95;;;;;;;5.44;51.37;97278.78;10263859;28;20053;-58
2023/01/17 17:01:16;;;;;;;4.95;3.60;;;;;;;5.38;52.13;97274.16;10281253;28;20534;-55
2023/01/17 17:06:19;;;;;;;4.97;3.50;;;;;;;5.30;52.21;97270.50;10274998;28;20580;-56
2023/01/17 17:11:22;;;;;;;4.13;3.55;;;;;;;5.28;52.03;97275.13;10238789;28;20050;-60
2023/01/17 17:16:28;;;;;;;4.40;3.35;;;;;;;5.25;51.95;97282.53;10251383;28;20963;-61
2023/01/17 17:21:32;;;;;;;3.83;3.45;;;;;;;5.18;51.86;97282.38;10275403;28;20596;-57
2023/01/17 17:26:35;;;;;;;3.92;3.53;;;;;;;5.19;52.30;97276.09;10243880;28;20050;-54
2023/01/17 17:31:39;;;;;;;5.85;3.03;;;;;;;5.12;52.06;97281.19;10264787;28;20060;-56
2023/01/17 17:36:41;;;;;;;4.30;3.13;;;;;;;5.14;51.49;97289.75;10280947;28;20955;-55
2023/01/17 17:41:44;;;;;;;3.28;2.30;;;;;;;5.16;51.02;97281.69;10274053;28;20077;-55
2023/01/17 17:46:48;;;;;;;3.97;2.85;;;;;;;5.03;50.72;97302.41;10278733;28;20066;-55
2023/01/17 17:51:49;;;;;;;2.58;2.17;;;;;;;5.01;51.48;97297.31;10255135;28;20140;-57
2023/01/17 17:56:51;;;;;;;4.03;2.55;;;;;;;5.05;51.60;97303.91;10261004;28;20259;-58
2023/01/17 18:01:52;;;;;;;5.53;3.15;;;;;;;5.01;52.03;97312.31;10271833;28;20442;-56
2023/01/17 18:06:57;;;;;;;5.10;3.20;;;;;;;4.96;51.64;97300.41;10278605;28;20054;-56
2023/01/17 18:11:58;;;;;;;3.50;3.17;;;;;;;4.92;52.26;97308.81;10262235;28;20056;-55
2023/01/17 18:17:00;;;;;;;3.70;3.30;;;;;;;4.93;52.52;97310.47;10261615;28;20065;-55
2023/01/17 18:22:02;;;;;;;4.40;3.80;;;;;;;4.86;53.58;97320.81;10278558;28;20054;-54
2023/01/17 18:27:04;;;;;;;3.88;3.47;;;;;;;4.71;51.92;97306.59;10268615;28;20058;-55
2023/01/17 18:32:06;;;;;;;3.97;3.42;;;;;;;4.67;52.27;97315.78;10263245;28;20139;-56
2023/01/17 18:37:08;;;;;;;4.72;3.90;;;;;;;4.66;52.63;97317.63;10276230;28;20139;-55
2023/01/17 18:42:10;;;;;;;4.95;3.70;;;;;;;4.59;52.65;97317.44;10276983;28;20100;-55
2023/01/17 18:47:12;;;;;;;7.78;3.90;;;;;;;4.56;52.63;97320.38;10253819;28;20058;-55
2023/01/17 18:52:13;;;;;;;4.90;4.35;;;;;;;4.57;53.24;97326.47;10263372;28;20181;-55
2023/01/17 18:57:15;;;;;;;6.63;4.18;;;;;;;4.58;53.32;97331.56;10278995;28;20722;-54
2023/01/17 19:02:18;;;;;;;4.78;4.10;;;;;;;4.51;53.49;97340.28;10271275;28;20636;-59
2023/01/17 19:07:20;;;;;;;5.28;4.78;;;;;;;4.47;53.42;97345.00;10221250;28;20057;-54
2023/01/17 19:12:21;;;;;;;6.55;4.65;;;;;;;4.45;53.71;97349.63;10275889;28;21231;-55
2023/01/17 19:17:23;;;;;;;6.10;5.13;;;;;;;4.29;54.03;97346.88;10260492;28;20565;-55
2023/01/17 19:22:25;;;;;;;6.65;5.15;;;;;;;4.25;54.70;97362.19;10249184;28;20050;-54
2023/01/17 19:27:26;;;;;;;6.22;4.97;;;;;;;4.25;55.32;97367.44;10267771;28;20050;-55
2023/01/17 19:32:29;;;;;;;5.22;4.72;;;;;;;4.21;55.83;97376.63;10271355;28;20053;-55
2023/01/17 19:37:35;;;;;;;7.18;5.38;;;;;;;4.16;55.59;97389.41;10257420;28;20058;-55
2023/01/17 19:42:37;;;;;;;6.97;5.45;;;;;;;4.07;56.18;97396.44;10253142;28;20062;-53
2023/01/17 19:47:39;;;;;;;5.30;4.80;;;;;;;4.07;56.23;97397.25;10264134;28;20056;-54
2023/01/17 19:52:40;;;;;;;6.38;5.75;;;;;;;3.95;57.04;97402.88;10252441;28;20054;-54
2023/01/17 19:57:42;;;;;;;8.02;5.72;;;;;;;3.97;57.33;97400.94;10259632;28;20042;-55
2023/01/17 20:02:44;;;;;;;6.20;5.60;;;;;;;3.85;57.74;97403.81;10277613;28;20089;-54
2023/01/17 20:07:46;;;;;;;11.10;6.32;;;;;;;3.75;58.62;97395.16;10267001;28;20665;-57
2023/01/17 20:12:47;;;;;;;6.43;5.30;;;;;;;3.79;58.81;97404.41;10261021;28;20572;-54
2023/01/17 20:17:51;;;;;;;6.35;5.75;;;;;;;3.82;58.83;97403.28;10225135;28;20054;-59
2023/01/17 20:22:54;;;;;;;7.35;5.00;;;;;;;3.78;59.03;97400.09;10269725;28;20061;-54
2023/01/17 20:27:56;;;;;;;6.88;6.00;;;;;;;3.74;59.14;97403.19;10262932;28;20132;-54
2023/01/17 20:32:59;;;;;;;6.63;4.80;;;;;;;3.72;59.15;97411.25;10241389;28;20050;-54
2023/01/17 20:38:01;;;;;;;6.10;4.90;;;;;;;3.79;59.09;97404.41;10223201;28;22348;-59
2023/01/17 20:43:03;;;;;;;6.75;5.63;;;;;;;3.77;58.99;97410.78;10271750;28;20542;-56
2023/01/17 20:48:10;;;;;;;7.15;5.40;;;;;;;3.82;59.10;97417.25;10243997;28;20053;-61
2023/01/17 20:53:12;;;;;;;5.47;4.93;;;;;;;3.85;59.31;97416.97;10262611;28;21417;-54
2023/01/17 20:58:13;;;;;;;5.28;4.78;;;;;;;3.85;59.05;97424.84;10277848;28;20053;-63
2023/01/17 21:03:18;;;;;;;6.77;4.87;;;;;;;3.82;59.16;97427.78;10281210;28;20062;-54
2023/01/17 21:08:20;;;;;;;6.97;5.60;;;;;;;3.87;59.27;97427.34;10261442;28;20301;-55
2023/01/17 21:13:22;;;;;;;6.45;5.43;;;;;;;3.91;59.32;97425.25;10271351;28;20058;-54
2023/01/17 21:18:25;;;;;;;5.57;4.72;;;;;;;3.89;58.95;97426.22;10276456;28;20538;-58
2023/01/17 21:23:29;;;;;;;5.80;5.20;;;;;;;4.00;64.48;97419.06;10255587;28;20046;-51
2023/01/17 21:28:33;;;;;;;5.75;5.20;;;;;;;4.36;59.81;97424.28;10268328;28;20050;-50
2023/01/17 21:33:35;;;;;;;5.50;4.93;;;;;;;4.20;58.28;97423.19;10255578;28;20046;-54
2023/01/17 21:38:37;;;;;;;6.22;4.88;;;;;;;4.01;58.91;97424.19;10205959;28;20075;-54
2023/01/17 21:43:39;;;;;;;5.82;5.13;;;;;;;3.88;59.29;97423.72;10266188;28;20061;-59
2023/01/17 21:48:43;;;;;;;6.70;4.78;;;;;;;3.82;59.22;97425.16;10276850;28;20050;-54
2023/01/17 21:53:45;;;;;;;9.02;6.50;;;;;;;3.77;59.65;97434.47;10233044;28;20055;-54
2023/01/17 21:58:52;;;;;;;7.00;5.32;;;;;;;3.63;60.57;97441.06;10273688;28;20080;-55
2023/01/17 22:03:58;;;;;;;6.43;5.28;;;;;;;3.64;60.45;97442.75;10278723;28;20554;-54
2023/01/17 22:09:01;;;;;;;7.75;5.68;;;;;;;3.56;60.57;97440.00;10261178;28;20066;-54
2023/01/17 22:14:03;;;;;;;5.88;5.00;;;;;;;3.55;61.66;97444.44;10250587;28;20058;-54
2023/01/17 22:19:07;;;;;;;5.47;4.93;;;;;;;3.55;61.13;97439.19;10263472;28;20070;-55
2023/01/17 22:24:14;;;;;;;9.02;4.88;;;;;;;3.54;61.15;97443.63;10264123;28;20093;-55
2023/01/17 22:29:17;;;;;;;6.32;4.80;;;;;;;3.49;61.53;97440.59;10272253;28;20061;-54
2023/01/17 22:34:19;;;;;;;6.90;5.30;;;;;;;3.49;61.48;97432.72;10277609;28;20050;-54
2023/01/17 22:39:20;;;;;;;9.00;5.68;;;;;;;3.39;61.73;97434.56;10270738;28;20074;-54
2023/01/17 22:44:22;;;;;;;4.43;4.03;;;;;;;3.36;61.97;97427.81;10261874;28;20169;-53
2023/01/17 22:49:23;;;;;;;5.82;4.95;;;;;;;3.33;62.17;97424.63;10210861;28;20062;-54
2023/01/17 22:54:25;;;;;;;5.72;4.90;;;;;;;3.26;62.61;97418.31;10240095;28;20157;-57
2023/01/17 22:59:26;;;;;;;5.70;5.10;;;;;;;3.26;62.69;97423.56;10278873;28;20060;-56
2023/01/17 23:04:28;;;;;;;7.15;5.60;;;;;;;3.26;62.78;97434.09;10297881;28;20112;-54
2023/01/17 23:09:31;;;;;;;6.93;5.28;;;;;;;3.22;62.90;97423.03;10284155;28;20132;-54
2023/01/17 23:19:54;;;;;;;7.80;5.93;;;;;;;3.32;62.58;97423.00;10276084;28;20073;-55
2023/01/17 23:24:57;;;;;;;6.03;4.93;;;;;;;3.30;63.05;97420.53;10283573;28;20046;-61
2023/01/17 23:29:59;;;;;;;6.18;5.00;;;;;;;3.17;63.15;97415.59;10244138;28;20398;-54
2023/01/17 23:35:01;;;;;;;6.88;4.70;;;;;;;3.13;63.13;97416.84;10254704;28;20648;-55
2023/01/17 23:40:03;;;;;;;6.68;5.45;;;;;;;3.14;63.49;97410.63;10284985;28;20675;-61
2023/01/17 23:45:05;;;;;;;7.07;5.18;;;;;;;3.18;63.26;97409.38;10295822;28;20245;-56
2023/01/17 23:50:08;;;;;;;7.50;5.90;;;;;;;3.22;63.25;97407.28;10275703;28;20070;-54
2023/01/17 23:55:09;;;;;;;5.57;4.55;;;;;;;3.13;63.16;97398.47;10256566;28;20054;-55
